ADDS METAR Data INFO
IDs: Format: Raw Decoded Include TAF

Data at: 0344 UTC 19 Feb 2018

KBUY 190254Z AUTO 08003KT 10SM BKN055 09/03 A3040 RMK AO2 SLP293 T00940033 53015
KBUY 190154Z AUTO 09003KT 10SM SCT050 08/02 A3038 RMK AO2 SLP288 T00780022
KBUY 190054Z AUTO 00000KT 10SM CLR 09/02 A3037 RMK AO2 SLP284 T00940022
KBUY 182354Z AUTO 00000KT 10SM CLR 11/02 A3035 RMK AO2 SLP279 T01110022 10172 20111 53012
KBUY 182254Z AUTO 10004KT 10SM CLR 14/01 A3034 RMK AO2 SLP274 T01440006
KBUY 182154Z AUTO 10005KT 10SM CLR 16/00 A3032 RMK AO2 SLP267 T01610000
KBUY 182054Z AUTO VRB06KT 10SM CLR 17/00 A3031 RMK AO2 SLP265 T01670000 56009
KBUY 181954Z AUTO 07006KT 10SM CLR 17/01 A3032 RMK AO2 SLP266 T01720006
KBUY 181854Z AUTO VRB05KT 10SM CLR 16/M01 A3033 RMK AO2 SLP270 T01611006
KBUY 181754Z AUTO 03006KT 10SM CLR 16/01 A3034 RMK AO2 SLP274 T01560006 10161 20044 50001
KBUY 181654Z AUTO 36010KT 10SM CLR 14/01 A3036 RMK AO2 SLP282 T01440011
KBUY 181554Z AUTO 35010KT 10SM CLR 13/03 A3036 RMK AO2 SLP283 T01280033
KBUY 181454Z AUTO 33008KT 10SM CLR 11/04 A3034 RMK AO2 SLP275 T01060044 51041
KBUY 181417Z AUTO 00000KT 5SM BR SCT002 07/07 A3032 RMK AO2 T00720067
KBUY 181408Z AUTO 19003KT 2SM BR BKN002 07/06 A3032 RMK AO2 T00670061
KBUY 181354Z AUTO 00000KT 1/2SM FG VV002 06/06 A3031 RMK AO2 SLP265 T00610061
KBUY 181341Z AUTO 19003KT 1/4SM FG VV002 06/05 A3030 RMK AO2 VIS M1/4V5 T00560050
KBUY 181335Z AUTO 20003KT 1 1/2SM BR BKN001 06/06 A3029 RMK AO2 T00610056
KBUY 181329Z AUTO 00000KT 3SM BR BKN001 06/06 A3029 RMK AO2 T00610056
KBUY 181324Z AUTO 00000KT 1 3/4SM BR BKN001 06/05 A3029 RMK AO2 T00560050
KBUY 181316Z AUTO 00000KT 3/4SM BR VV001 06/05 A3028 RMK AO2 T00560050
KBUY 181254Z AUTO 00000KT 1/4SM FG VV001 05/04 A3026 RMK AO2 SLP250 T00500044
KBUY 181203Z AUTO 00000KT 1/4SM FG VV002 05/04 A3023 RMK AO2 T00500044
KBUY 181154Z AUTO 00000KT 1/2SM FG VV002 04/04 A3022 RMK AO2 SLP234 70007 T00440044 10056 20044 53033
KBUY 181147Z AUTO 00000KT 3/4SM BR VV002 04/04 A3021 RMK AO2 T00440044
KBUY 181137Z AUTO 00000KT 1SM BR VV002 05/04 A3021 RMK AO2 T00500044
KBUY 181054Z AUTO 00000KT 1/2SM FG VV002 05/05 A3017 RMK AO2 SLP219 T00500050
KBUY 180954Z AUTO 25003KT 3/4SM BR VV002 06/05 A3014 RMK AO2 SLP209 T00560050
KBUY 180943Z AUTO 26005KT 3/4SM BR VV002 05/05 A3014 RMK AO2 T00500050
KBUY 180928Z AUTO 26004KT 1 3/4SM BR BKN002 05/04 A3013 RMK AO2 T00500044
KBUY 180920Z AUTO 28004KT 5SM BR BKN003 05/04 A3013 RMK AO2 T00500044
KBUY 180911Z AUTO 27004KT 7SM SCT003 05/04 A3013 RMK AO2 T00500044
KBUY 180854Z AUTO 25004KT 8SM CLR 04/04 A3012 RMK AO2 SLP201 T00440039 53007
KBUY 180754Z AUTO 19003KT 9SM FEW003 05/04 A3009 RMK AO2 SLP192 T00500044
KBUY 180750Z AUTO 19003KT 10SM SCT003 05/04 A3009 RMK AO2
KBUY 180654Z AUTO 24003KT 10SM OVC004 05/04 A3010 RMK AO2 SLP193 T00500044
KBUY 180639Z AUTO 27003KT 10SM BKN004 BKN010 05/04 A3010 RMK AO2 T00500039
KBUY 180629Z AUTO 00000KT 10SM SCT004 SCT010 05/04 A3009 RMK AO2 T00500044
KBUY 180554Z AUTO 00000KT 10SM BKN004 BKN065 06/04 A3009 RMK AO2 SLP190 60004 T00560044 10072 20050 56011
KBUY 180539Z AUTO 00000KT 10SM FEW003 SCT016 SCT065 06/04 A3010 RMK AO2 T00560044
KBUY 180454Z AUTO 19003KT 10SM FEW003 BKN018 OVC050 06/04 A3009 RMK AO2 RAE09 SLP192 P0000 T00560039 401280050
KBUY 180451Z AUTO 20003KT 10SM FEW003 BKN018 OVC049 06/04 A3009 RMK AO2 RAE09 P0000
KBUY 180443Z AUTO 00000KT 10SM FEW003 SCT018 OVC049 06/04 A3010 RMK AO2 RAE09 P0000 T00560044
KBUY 180430Z AUTO 00000KT 10SM SCT020 OVC049 05/04 A3010 RMK AO2 RAE09 P0000 T00500044
KBUY 180354Z AUTO 29003KT 7SM RA SCT006 OVC018 06/04 A3012 RMK AO2 RAE0258B22E31B47 SLP201 P0001 T00560044
KBUY 180303Z AUTO 00000KT 9SM BKN006 OVC020 05/04 A3010 RMK AO2 RAE0258 P0000 T00500044
KBUY 180254Z AUTO 00000KT 7SM -RA BKN005 OVC017 05/04 A3009 RMK AO2 RAB00 PRESFR SLP190 P0002 60003 T00500044 58009
KBUY 180210Z AUTO 36007KT 4SM -RA BR OVC005 06/04 A3010 RMK AO2 RAB00 CIG 003V010 P0000 T00560044
KBUY 180154Z AUTO 35005KT 4SM BR BKN006 OVC013 06/06 A3011 RMK AO2 CIG 003V010 SLP196 T00610056
KBUY 180137Z AUTO 05003KT 6SM BR BKN006 OVC013 06/06 A3009 RMK AO2 CIG 003V009 T00610056
KBUY 180106Z AUTO 02004KT 4SM BR OVC004 06/06 A3010 RMK AO2 T00610056
KBUY 180054Z AUTO 01004KT 3SM BR OVC006 07/06 A3010 RMK AO2 RAE15B27E37 CIG 003V009 SLP194 P0001 T00670056
KBUY 180045Z AUTO 36005KT 4SM BR OVC007 07/06 A3010 RMK AO2 RAE15B27E37 CIG 004V009 P0001 T00670056
KBUY 180021Z AUTO VRB04KT 4SM BR BKN005 OVC009 07/06 A3010 RMK AO2 RAE15 CIG 003V007 P0001 T00670061
KBUY 172354Z AUTO 34006KT 3SM -RA BR OVC004 07/06 A3012 RMK AO2 RAE31B47 CIG 002V007 SLP198 P0001 60003 T00720061 10089 20067 55004
KBUY 172337Z AUTO 01004KT 3SM BR OVC003 07/06 A3010 RMK AO2 RAE31 P0001 T00670061
KBUY 172254Z AUTO 03003KT 2 1/2SM -RA BR BKN003 OVC007 07/06 A3011 RMK AO2 RAB54 SLP198 P0000 T00670061
KBUY 172247Z AUTO 06003KT 2SM BR BKN003 OVC007 07/06 A3010 RMK AO2 CIG 002V005 T00670061
KBUY 172234Z AUTO 08003KT 1 3/4SM BR OVC005 07/06 A3011 RMK AO2 CIG 003V010 T00670061
KBUY 172224Z AUTO 00000KT 1 3/4SM BR OVC004 07/06 A3012 RMK AO2 CIG 003V008 T00670061
KBUY 172211Z AUTO 06003KT 2SM BR OVC004 07/06 A3011 RMK AO2 T00670061
KBUY 172154Z AUTO VRB03KT 3SM BR BKN004 OVC022 07/06 A3012 RMK AO2 RAE04 SLP199 P0000 T00670061
KBUY 172143Z AUTO 10007KT 3SM BR BKN004 BKN017 OVC022 07/06 A3009 RMK AO2 RAE04 P0000 T00670061
KBUY 172124Z AUTO 10005KT 2SM BR BKN004 BKN008 OVC017 07/06 A3011 RMK AO2 RAE04 P0000 T00670061
KBUY 172117Z AUTO 10006KT 1 3/4SM BR BKN004 OVC017 07/06 A3010 RMK AO2 RAE04 PRESFR P0000 T00670061
KBUY 172054Z AUTO 10003KT 2SM -RA BR SCT009 OVC016 07/06 A3013 RMK AO2 RAB05 SLP202 P0002 60002 T00670056 55016
KBUY 172050Z AUTO 00000KT 2SM -RA BR SCT009 OVC016 07/06 A3013 RMK AO2 RAB05 P0002
KBUY 172044Z AUTO 00000KT 2 1/2SM -RA BR BKN010 OVC015 07/06 A3014 RMK AO2 RAB05 CIG 007V012 P0001 T00670056
KBUY 172030Z AUTO 00000KT 4SM -RA BR OVC013 07/05 A3014 RMK AO2 RAB05 P0001 T00720050
KBUY 171954Z AUTO 11003KT 9SM OVC019 08/04 A3012 RMK AO2 SLP201 T00780039
KBUY 171854Z AUTO 11006KT 10SM OVC028 08/03 A3014 RMK AO2 RAB05E15B34E47 SLP206 P0000 T00780033
KBUY 171754Z AUTO 05005KT 10SM OVC031 09/02 A3018 RMK AO2 SLP219 T00890017 10089 20083 58030
KBUY 171654Z AUTO 05006KT 10SM OVC032 08/01 A3022 RMK AO2 SLP234 T00830011
KBUY 171554Z AUTO 07006KT 10SM OVC031 09/M01 A3025 RMK AO2 SLP243 T00891006